Time;durP1;ratioP1;P1;durP2;ratioP2;P2;SDS_P1;SDS_P2;PMS_P1;PMS_P2;Temp;Humidity;BMP_temperature;BMP_pressure;BME280_temperature;BME280_humidity;BME280_pressure;Samples;Min_cycle;Max_cycle;Signal;HPM_P1;HPM_P2
2023/03/24 00:01:20;;;;;;;;;3.00;3.00;;;;;16.20;100.00;99925.75;5054476;28;45443;-76
2023/03/24 00:03:47;;;;;;;;;3.00;3.00;;;;;16.19;100.00;99924.88;5043627;28;55591;-75
2023/03/24 00:06:13;;;;;;;;;3.00;3.00;;;;;16.21;100.00;99923.03;5044060;28;45202;-75
2023/03/24 00:08:40;;;;;;;;;3.67;3.00;;;;;16.23;100.00;99923.88;5056681;28;45416;-76
2023/03/24 00:11:08;;;;;;;;;4.67;2.67;;;;;16.24;100.00;99935.41;5055924;28;45624;-75
2023/03/24 00:13:37;;;;;;;;;3.00;3.00;;;;;16.26;100.00;99933.59;5056168;28;46516;-75
2023/03/24 00:16:05;;;;;;;;;3.00;3.00;;;;;16.23;100.00;99934.53;5053845;28;45427;-75
2023/03/24 00:18:30;;;;;;;;;3.00;3.00;;;;;16.22;100.00;99939.91;5049984;28;45267;-75
2023/03/24 00:20:57;;;;;;;;;3.33;3.33;;;;;16.18;100.00;99936.44;5028262;28;45583;-76
2023/03/24 00:23:23;;;;;;;;;3.00;3.00;;;;;16.20;100.00;99939.06;5029637;28;48028;-76
2023/03/24 00:25:58;;;;;;;;;4.33;3.00;;;;;16.19;100.00;99953.28;5032897;28;45556;-75
2023/03/24 00:28:24;;;;;;;;;5.33;3.00;;;;;16.19;100.00;99940.88;5046670;28;45396;-74
2023/03/24 00:30:50;;;;;;;;;3.00;3.00;;;;;16.17;100.00;99942.69;5140824;22;45576;-75
2023/03/24 00:33:16;;;;;;;;;4.00;3.67;;;;;16.18;100.00;99933.78;4999326;28;45843;-76
2023/03/24 00:35:43;;;;;;;;;2.00;2.00;;;;;16.20;100.00;99933.75;4977120;28;56590;-77
2023/03/24 00:38:09;;;;;;;;;2.00;2.00;;;;;16.19;100.00;99950.63;4996197;28;45430;-75
2023/03/24 00:40:34;;;;;;;;;2.00;2.00;;;;;16.18;100.00;99949.75;4977849;28;45500;-75
2023/03/24 00:43:00;;;;;;;;;3.00;3.00;;;;;16.18;100.00;99960.41;4975228;28;47466;-75
2023/03/24 00:45:28;;;;;;;;;2.00;2.00;;;;;16.18;100.00;99971.06;4992261;28;45543;-76
2023/03/24 00:47:56;;;;;;;;;5.00;2.00;;;;;16.16;100.00;99972.91;4995172;28;45526;-75
2023/03/24 00:50:25;;;;;;;;;7.67;3.00;;;;;16.18;100.00;99986.16;4993200;28;45651;-75
2023/03/24 00:52:51;;;;;;;;;2.67;2.67;;;;;16.18;100.00;99987.03;4977956;28;46597;-76
2023/03/24 00:55:17;;;;;;;;;3.00;3.00;;;;;16.17;100.00;99995.06;4972871;28;45527;-75
2023/03/24 00:57:50;;;;;;;;;3.33;3.33;;;;;16.17;100.00;99992.41;4994828;28;45359;-75
2023/03/24 01:00:19;;;;;;;;;1.67;1.67;;;;;16.13;100.00;99972.09;4997878;28;45370;-76
2023/03/24 01:02:46;;;;;;;;;2.33;2.00;;;;;16.11;100.00;99971.25;4996129;28;46494;-77
2023/03/24 01:05:13;;;;;;;;;3.33;2.00;;;;;16.10;100.00;99973.06;4996009;28;45299;-76
2023/03/24 01:07:41;;;;;;;;;3.67;2.67;;;;;16.07;100.00;99970.47;4998597;28;45281;-76
2023/03/24 01:10:11;;;;;;;;;1.00;1.00;;;;;16.07;100.00;99975.78;4998869;28;45592;-77
2023/03/24 01:12:37;;;;;;;;;2.00;2.00;;;;;16.07;100.00;99989.09;4981007;28;46849;-75
2023/03/24 01:15:06;;;;;;;;;1.67;1.67;;;;;16.05;100.00;99953.66;4997978;28;58068;-78
2023/03/24 01:17:33;;;;;;;;;2.00;2.00;;;;;16.03;100.00;99962.59;4998481;28;45423;-76
2023/03/24 01:19:58;;;;;;;;;3.00;1.00;;;;;16.06;100.00;99978.50;5003601;28;45363;-78
2023/03/24 01:22:28;;;;;;;;;2.33;1.33;;;;;16.04;100.00;99986.53;4990423;28;46285;-77
2023/03/24 01:24:55;;;;;;;;;1.00;1.00;;;;;16.05;100.00;99966.97;4979018;28;45259;-76
2023/03/24 01:27:20;;;;;;;;;2.00;2.00;;;;;16.07;100.00;99962.47;4995324;28;45551;-76
2023/03/24 01:29:45;;;;;;;;;2.00;2.00;;;;;16.09;100.00;99976.63;4998032;28;52745;-76
2023/03/24 01:32:11;;;;;;;;;3.00;1.00;;;;;16.09;100.00;99979.31;4991822;28;49757;-76
2023/03/24 01:34:37;;;;;;;;;1.67;1.67;;;;;16.08;100.00;99971.34;4993715;28;45369;-77
2023/03/24 01:37:03;;;;;;;;;1.00;1.00;;;;;16.07;100.00;99967.78;4998425;28;45296;-77
2023/03/24 01:39:29;;;;;;;;;2.00;2.00;;;;;16.10;100.00;99972.19;4998352;28;45352;-76
2023/03/24 01:41:55;;;;;;;;;1.00;1.00;;;;;16.09;100.00;99979.31;4998073;28;47622;-76
2023/03/24 01:44:27;;;;;;;;;1.67;1.00;;;;;16.10;100.00;99982.84;4989940;28;45263;-77
2023/03/24 01:46:54;;;;;;;;;1.67;1.67;;;;;16.08;100.00;99974.88;4998360;28;45306;-76
2023/03/24 01:49:21;;;;;;;;;2.67;1.00;;;;;16.09;100.00;99981.97;4992020;28;45526;-77
2023/03/24 01:51:51;;;;;;;;;1.33;1.33;;;;;16.09;100.00;100000.59;4978153;28;45753;-76
2023/03/24 01:54:26;;;;;;;;;1.00;1.00;;;;;16.07;100.00;99998.88;4980132;28;45604;-77
2023/03/24 01:56:56;;;;;;;;;2.00;0.33;;;;;16.07;100.00;99993.56;4980145;28;45331;-76
2023/03/24 01:59:26;;;;;;;;;1.00;1.00;;;;;16.08;100.00;99993.50;5000480;28;45418;-76
2023/03/24 02:02:01;;;;;;;;;3.00;1.00;;;;;16.08;100.00;99979.31;4962595;28;45819;-77
2023/03/24 02:04:33;;;;;;;;;1.00;1.00;;;;;16.06;100.00;99978.50;4965237;28;45684;-76
2023/03/24 02:07:02;;;;;;;;;0.67;0.00;;;;;15.99;100.00;99964.47;4997596;28;45386;-77
2023/03/24 02:09:27;;;;;;;;;0.00;0.00;;;;;15.94;100.00;99977.03;4981227;28;45377;-77
2023/03/24 02:11:53;;;;;;;;;2.00;0.00;;;;;15.89;100.00;99981.56;4978882;28;47477;-77
2023/03/24 02:14:18;;;;;;;;;1.00;1.00;;;;;15.87;100.00;99978.06;4987820;28;58543;-77
2023/03/24 02:16:58;;;;;;;;;0.00;0.00;;;;;15.87;100.00;99967.41;4995338;28;51018;-77
2023/03/24 02:20:08;;;;;;;;;0.33;0.33;;;;;15.88;100.00;99979.84;4997356;28;45327;-78
2023/03/24 02:23:03;;;;;;;;;0.67;0.67;;;;;15.86;100.00;99993.16;4994424;28;46896;-77
2023/03/24 02:25:40;;;;;;;;;1.33;1.00;;;;;15.87;100.00;99992.28;4980326;28;45426;-76
2023/03/24 02:28:18;;;;;;;;;0.67;0.67;;;;;15.87;100.00;99991.38;4992185;28;45180;-76
2023/03/24 02:31:28;;;;;;;;;1.00;1.00;;;;;15.85;100.00;100006.53;4994765;28;45522;-77
2023/03/24 02:34:23;;;;;;;;;1.00;1.00;;;;;15.84;100.00;100015.41;4996955;28;46493;-77
2023/03/24 02:37:04;;;;;;;;;2.00;1.00;;;;;15.80;100.00;100013.72;4978702;28;45437;-78
2023/03/24 02:39:54;;;;;;;;;1.33;1.00;;;;;15.79;100.00;100014.66;4996984;28;45448;-76
2023/03/24 02:42:38;;;;;;;;;1.00;1.00;;;;;15.76;100.00;100025.34;4985101;28;45342;-77
2023/03/24 02:45:20;;;;;;;;;1.33;1.33;;;;;15.70;100.00;100010.41;4971103;28;47396;-77
2023/03/24 02:48:24;;;;;;;;;0.67;0.67;;;;;15.68;100.00;100022.88;4978131;28;45499;-77
2023/03/24 02:51:20;;;;;;;;;3.00;1.00;;;;;15.61;100.00;100018.59;4990811;28;45558;-76
2023/03/24 02:54:04;;;;;;;;;0.00;0.00;;;;;15.57;100.00;100023.09;4991546;28;45437;-77
2023/03/24 02:56:46;;;;;;;;;0.67;0.67;;;;;15.54;100.00;100019.63;4990982;28;46556;-76
2023/03/24 02:59:19;;;;;;;;;1.00;1.00;;;;;15.54;100.00;100030.25;4994092;28;45215;-77
2023/03/24 03:01:53;;;;;;;;;0.00;0.00;;;;;15.54;100.00;100022.28;4975531;28;45467;-77
2023/03/24 03:04:24;;;;;;;;;0.00;0.00;;;;;15.52;100.00;100016.13;4979463;28;45414;-78
2023/03/24 03:06:53;;;;;;;;;0.00;0.00;;;;;15.48;100.00;100019.75;4997185;28;46436;-76
2023/03/24 03:09:20;;;;;;;;;0.00;0.00;;;;;15.41;100.00;100030.53;4997319;28;45315;-76
2023/03/24 03:11:48;;;;;;;;;3.00;0.00;;;;;15.35;100.00;100054.63;4979251;28;45466;-77
2023/03/24 03:14:19;;;;;;;;;1.67;0.67;;;;;15.29;100.00;100046.78;4996620;28;45453;-77
2023/03/24 03:16:52;;;;;;;;;0.00;0.00;;;;;15.25;100.00;100054.84;4976903;28;47503;-76
2023/03/24 03:19:26;;;;;;;;;0.00;0.00;;;;;15.19;100.00;100046.06;4979434;28;45330;-78
2023/03/24 03:21:52;;;;;;;;;0.00;0.00;;;;;15.16;100.00;100050.56;4978976;28;45412;-76
2023/03/24 03:24:25;;;;;;;;;0.00;0.00;;;;;15.13;100.00;100043.53;4978597;28;45437;-76
2023/03/24 03:26:54;;;;;;;;;2.00;0.00;;;;;15.09;100.00;100048.94;4979555;28;45929;-77
2023/03/24 03:29:21;;;;;;;;;2.67;0.00;;;;;15.06;100.00;100055.19;4995249;28;45409;-77
2023/03/24 03:31:52;;;;;;;;;0.00;0.00;;;;;15.04;100.00;100057.03;4978377;28;45318;-77
2023/03/24 03:34:38;;;;;;;;;2.00;0.00;;;;;15.05;100.00;100073.84;4971280;28;45653;-76
2023/03/24 03:37:08;;;;;;;;;0.00;0.00;;;;;15.03;100.00;100071.22;4974313;28;47830;-77
2023/03/24 03:39:40;;;;;;;;;0.00;0.00;;;;;15.03;100.00;100080.97;4977304;28;45485;-76
2023/03/24 03:42:06;;;;;;;;;1.00;1.00;;;;;15.01;100.00;100078.34;4978288;28;45263;-76
2023/03/24 03:44:31;;;;;;;;;0.00;0.00;;;;;14.99;100.00;100084.59;4996364;28;48335;-77
2023/03/24 03:46:57;;;;;;;;;2.33;0.00;;;;;14.96;100.00;100077.53;4978357;28;46068;-76
2023/03/24 03:49:24;;;;;;;;;2.00;1.00;;;;;14.94;100.00;100072.25;4978522;28;45223;-76
2023/03/24 03:51:50;;;;;;;;;2.00;0.00;;;;;14.97;100.00;100079.31;4996849;28;45504;-76
2023/03/24 03:54:15;;;;;;;;;1.33;0.00;;;;;15.00;100.00;100073.06;4994380;28;45524;-76
2023/03/24 03:56:41;;;;;;;;;0.00;0.00;;;;;14.98;100.00;100061.59;4977343;28;46079;-76
2023/03/24 03:59:07;;;;;;;;;0.00;0.00;;;;;14.96;100.00;100064.25;4997370;28;45455;-77
2023/03/24 04:01:35;;;;;;;;;0.00;0.00;;;;;14.96;100.00;100074.88;4996885;28;45497;-76
2023/03/24 04:04:10;;;;;;;;;3.00;0.00;;;;;14.93;100.00;100085.59;4977763;28;46634;-76
2023/03/24 04:06:42;;;;;;;;;1.00;1.00;;;;;14.90;100.00;100082.97;4996099;28;47036;-76
2023/03/24 04:09:32;;;;;;;;;0.00;0.00;;;;;14.89;100.00;100083.88;4991898;28;45410;-77
2023/03/24 04:12:22;;;;;;;;;1.00;0.00;;;;;14.87;100.00;100085.72;4977228;28;45311;-77
2023/03/24 04:15:17;;;;;;;;;1.00;0.00;;;;;14.86;100.00;100082.19;5006624;28;46368;-76
2023/03/24 04:17:54;;;;;;;;;1.33;0.33;;;;;14.87;100.00;100081.28;4987002;28;46706;-76
2023/03/24 04:20:37;;;;;;;;;0.00;0.00;;;;;14.90;100.00;100083.84;4995576;28;45419;-77
2023/03/24 04:23:17;;;;;;;;;0.33;0.00;;;;;14.90;100.00;100094.47;4992482;28;45408;-76
2023/03/24 04:25:49;;;;;;;;;2.00;0.33;;;;;14.93;100.00;100106.84;4996156;28;45234;-76
2023/03/24 04:28:25;;;;;;;;;5.00;1.00;;;;;14.92;100.00;100118.41;4993398;28;45965;-76
2023/03/24 04:31:01;;;;;;;;;3.00;0.00;;;;;14.92;100.00;100121.94;4995180;28;45492;-77
2023/03/24 04:34:02;;;;;;;;;0.33;0.33;;;;;14.90;100.00;100115.75;4986184;28;45394;-77
2023/03/24 04:36:41;;;;;;;;;0.00;0.00;;;;;14.87;100.00;100120.25;4963309;28;45511;-76
2023/03/24 04:39:09;;;;;;;;;2.00;1.00;;;;;14.86;100.00;100122.06;4974462;28;46801;-77
2023/03/24 04:41:36;;;;;;;;;0.00;0.00;;;;;14.90;100.00;100128.16;4981263;28;45428;-76
2023/03/24 04:44:02;;;;;;;;;0.67;0.67;;;;;14.92;100.00;100132.56;4992073;28;45383;-77
2023/03/24 04:46:27;;;;;;;;;0.00;0.00;;;;;14.96;100.00;100141.34;4998996;28;45476;-76
2023/03/24 04:48:53;;;;;;;;;0.00;0.00;;;;;14.99;100.00;100138.63;4997293;28;69800;-76
2023/03/24 04:51:19;;;;;;;;;1.00;0.33;;;;;14.97;100.00;100151.09;4997800;28;67388;-76
2023/03/24 04:53:45;;;;;;;;;1.33;0.00;;;;;14.93;100.00;100144.94;4981793;28;45449;-76
2023/03/24 04:56:40;;;;;;;;;3.00;0.00;;;;;14.88;100.00;100159.22;4997251;28;45293;-77
2023/03/24 04:59:08;;;;;;;;;1.33;0.00;;;;;14.80;100.00;100151.38;5002026;28;47251;-77
2023/03/24 05:01:36;;;;;;;;;1.33;0.67;;;;;14.76;100.00;100165.63;4998473;28;45282;-78
2023/03/24 05:04:03;;;;;;;;;0.67;0.67;;;;;14.72;100.00;100163.06;4998998;28;45325;-76
2023/03/24 05:06:28;;;;;;;;;3.00;0.00;;;;;14.68;100.00;100164.88;4991822;28;45514;-76
2023/03/24 05:08:56;;;;;;;;;1.00;1.00;;;;;14.65;100.00;100163.16;4998415;28;46737;-76
2023/03/24 05:11:21;;;;;;;;;0.00;0.00;;;;;14.62;100.00;100167.63;4980813;28;45463;-77
2023/03/24 05:13:47;;;;;;;;;3.33;0.00;;;;;14.57;100.00;100161.50;4998062;28;61084;-76
2023/03/24 05:16:13;;;;;;;;;1.67;1.00;;;;;14.51;100.00;100157.19;4998781;28;45575;-76
2023/03/24 05:18:38;;;;;;;;;0.00;0.00;;;;;14.48;100.00;100162.53;4999035;28;46364;-77
2023/03/24 05:21:05;;;;;;;;;0.33;0.33;;;;;14.44;100.00;100166.13;4998560;28;45367;-77
2023/03/24 05:23:30;;;;;;;;;2.00;0.00;;;;;14.42;100.00;100162.59;5007270;28;45628;-77
2023/03/24 05:25:55;;;;;;;;;5.00;1.00;;;;;14.39;100.00;100178.59;4998029;28;59820;-78
2023/03/24 05:28:21;;;;;;;;;0.00;0.00;;;;;14.35;100.00;100174.22;4996961;28;71718;-78
2023/03/24 05:30:46;;;;;;;;;3.67;1.00;;;;;14.32;100.00;100175.13;4997852;28;45460;-78
2023/03/24 05:33:12;;;;;;;;;1.00;1.00;;;;;14.31;100.00;100180.47;4998225;28;45497;-77
2023/03/24 05:35:37;;;;;;;;;2.33;1.00;;;;;14.29;100.00;100188.47;4979892;28;61128;-76
2023/03/24 05:38:02;;;;;;;;;2.00;1.00;;;;;14.28;100.00;100188.50;4992415;28;70298;-76
2023/03/24 05:40:29;;;;;;;;;0.00;0.00;;;;;14.27;100.00;100189.38;4996161;28;45848;-78
2023/03/24 05:42:54;;;;;;;;;1.00;0.00;;;;;14.26;100.00;100195.59;4996257;28;63104;-77
2023/03/24 05:45:19;;;;;;;;;0.00;0.00;;;;;14.23;100.00;100198.31;4996000;28;60113;-76
2023/03/24 05:47:45;;;;;;;;;4.33;0.00;;;;;14.22;100.00;100197.44;4979611;28;67583;-82
2023/03/24 05:50:11;;;;;;;;;1.67;0.00;;;;;14.19;100.00;100193.94;4995918;28;45330;-80
2023/03/24 05:52:36;;;;;;;;;0.00;0.00;;;;;14.14;100.00;100205.50;4989993;28;45944;-80
2023/03/24 05:55:02;;;;;;;;;2.00;1.00;;;;;14.15;100.00;100199.28;4995491;28;62716;-79
2023/03/24 05:57:30;;;;;;;;;1.33;0.00;;;;;14.12;100.00;100209.94;4993746;28;46410;-83
2023/03/24 05:59:56;;;;;;;;;3.00;0.67;;;;;14.09;100.00;100209.09;4994879;28;45510;-82
2023/03/24 06:02:22;;;;;;;;;2.33;0.00;;;;;14.07;100.00;100213.56;4996937;28;45323;-80
2023/03/24 06:04:49;;;;;;;;;0.00;0.00;;;;;14.03;100.00;100209.19;4980411;28;45375;-82
2023/03/24 06:07:15;;;;;;;;;2.00;0.00;;;;;13.99;100.00;100221.63;4994779;28;46677;-78
2023/03/24 06:09:41;;;;;;;;;0.00;0.00;;;;;13.96;100.00;100234.94;4974003;28;45294;-78
2023/03/24 06:12:07;;;;;;;;;1.33;0.33;;;;;13.93;100.00;100234.09;4991420;28;45471;-79
2023/03/24 06:14:33;;;;;;;;;0.00;0.00;;;;;13.91;100.00;100242.06;4996540;28;45351;-80
2023/03/24 06:16:58;;;;;;;;;2.67;0.00;;;;;13.89;100.00;100243.84;4978143;28;59459;-78
2023/03/24 06:19:29;;;;;;;;;2.00;1.00;;;;;13.84;100.00;100241.25;4989043;28;57765;-79
2023/03/24 06:21:55;;;;;;;;;0.00;0.00;;;;;13.83;100.00;100255.41;4992543;28;45309;-77
2023/03/24 06:24:20;;;;;;;;;1.67;0.00;;;;;13.82;100.00;100252.78;4994003;28;45553;-79
2023/03/24 06:26:48;;;;;;;;;3.00;0.00;;;;;13.80;100.00;100262.56;4996454;28;45978;-78
2023/03/24 06:29:17;;;;;;;;;0.00;0.00;;;;;13.78;100.00;100270.50;4975322;28;45411;-78
2023/03/24 06:31:43;;;;;;;;;3.00;0.00;;;;;13.78;100.00;100277.59;4997234;28;45589;-78
2023/03/24 06:34:08;;;;;;;;;0.67;0.67;;;;;13.74;100.00;100283.81;4993058;28;45388;-77
2023/03/24 06:36:33;;;;;;;;;0.00;0.00;;;;;13.74;100.00;100281.16;4990156;28;57306;-78
2023/03/24 06:39:01;;;;;;;;;1.00;0.33;;;;;13.75;100.00;100286.50;4991941;28;58170;-79
2023/03/24 06:41:26;;;;;;;;;0.33;0.33;;;;;13.84;100.00;100296.09;4997344;28;45563;-79
2023/03/24 06:43:51;;;;;;;;;0.00;0.00;;;;;13.85;100.00;100296.09;4978879;28;45423;-76
2023/03/24 06:46:17;;;;;;;;;2.67;1.00;;;;;13.83;100.00;100295.22;4989932;28;64620;-79
2023/03/24 06:48:42;;;;;;;;;3.00;0.00;;;;;13.80;100.00;100299.72;4992689;28;68222;-79
2023/03/24 06:51:08;;;;;;;;;2.67;0.33;;;;;13.80;100.00;100297.06;4995730;28;45408;-77
2023/03/24 06:53:33;;;;;;;;;1.00;0.33;;;;;13.77;100.00;100291.75;4994411;28;45712;-76
2023/03/24 06:55:58;;;;;;;;;2.00;0.00;;;;;13.74;100.00;100289.13;4992785;28;46423;-77
2023/03/24 06:58:24;;;;;;;;;0.00;0.00;;;;;13.76;100.00;100282.94;4991104;28;45940;-78
2023/03/24 07:00:49;;;;;;;;;1.33;0.00;;;;;13.76;100.00;100285.59;4995794;28;58701;-79
2023/03/24 07:03:15;;;;;;;;;3.00;0.00;;;;;13.77;100.00;100294.41;4981220;28;45480;-79
2023/03/24 07:05:42;;;;;;;;;0.00;0.00;;;;;13.76;100.00;100297.97;4975797;28;46693;-79
2023/03/24 07:08:08;;;;;;;;;0.00;0.00;;;;;13.76;100.00;100298.84;4993871;28;45376;-76
2023/03/24 07:10:35;;;;;;;;;2.67;0.33;;;;;13.79;100.00;100301.44;4995305;28;45600;-77
2023/03/24 07:13:02;;;;;;;;;1.33;0.00;;;;;13.82;100.00;100305.88;4969902;28;45681;-80
2023/03/24 07:15:27;;;;;;;;;0.00;0.00;;;;;13.84;100.00;100307.59;4992564;28;46659;-77
2023/03/24 07:17:53;;;;;;;;;1.00;0.00;;;;;13.88;100.00;100313.75;4992495;28;45783;-79
2023/03/24 07:20:19;;;;;;;;;3.00;0.00;;;;;13.91;100.00;100337.63;4990421;28;45491;-76
2023/03/24 07:22:44;;;;;;;;;2.00;0.33;;;;;13.89;100.00;100320.81;4989403;28;45615;-78
2023/03/24 07:25:09;;;;;;;;;1.67;0.00;;;;;13.91;100.00;100332.31;4986905;28;46223;-77
2023/03/24 07:27:36;;;;;;;;;1.00;1.00;;;;;13.89;100.00;100340.28;4974668;28;45643;-78
2023/03/24 07:30:03;;;;;;;;;2.00;1.00;;;;;13.92;100.00;100341.16;4995601;28;45237;-78
2023/03/24 07:32:29;;;;;;;;;0.00;0.00;;;;;13.93;100.00;100335.81;4995069;28;45701;-77
2023/03/24 07:34:54;;;;;;;;;0.00;0.00;;;;;13.91;100.00;100326.13;4993367;28;47825;-76
2023/03/24 07:37:20;;;;;;;;;2.00;1.00;;;;;13.98;100.00;100341.97;4960728;28;46242;-80
2023/03/24 07:39:46;;;;;;;;;0.33;0.33;;;;;14.03;100.00;100331.28;4976853;28;45189;-81
2023/03/24 07:42:12;;;;;;;;;2.33;0.00;;;;;14.05;100.00;100332.16;4991538;28;45388;-77
2023/03/24 07:44:37;;;;;;;;;0.00;0.00;;;;;14.02;100.00;100335.72;4986989;28;69115;-76
2023/03/24 07:47:02;;;;;;;;;1.00;1.00;;;;;14.04;100.00;100339.22;4993151;28;67062;-78
2023/03/24 07:49:28;;;;;;;;;0.67;0.00;;;;;14.05;100.00;100346.28;4987812;28;62496;-79
2023/03/24 07:51:53;;;;;;;;;0.00;0.00;;;;;14.09;100.00;100340.06;4995056;28;45550;-78
2023/03/24 07:54:18;;;;;;;;;1.00;0.00;;;;;14.12;100.00;100340.03;4994258;28;69574;-78
2023/03/24 07:56:44;;;;;;;;;0.00;0.00;;;;;14.13;100.00;100349.75;4992391;28;45421;-77
2023/03/24 07:59:09;;;;;;;;;2.33;1.00;;;;;14.15;100.00;100360.34;4992338;28;46018;-78
2023/03/24 08:01:36;;;;;;;;;4.00;0.00;;;;;14.17;100.00;100355.94;4990538;28;45604;-81
2023/03/24 08:04:03;;;;;;;;;4.33;1.00;;;;;14.20;100.00;100358.53;4958514;28;48380;-80
2023/03/24 08:06:29;;;;;;;;;0.00;0.00;;;;;14.25;100.00;100348.72;4991270;28;45496;-78
2023/03/24 08:08:54;;;;;;;;;3.00;2.00;;;;;14.34;100.00;100358.38;4993153;28;45412;-77
2023/03/24 08:11:19;;;;;;;;;3.33;0.67;;;;;14.41;100.00;100358.28;4996727;28;45762;-78
2023/03/24 08:13:45;;;;;;;;;3.67;0.67;;;;;14.49;100.00;100359.97;4997073;28;58161;-77
2023/03/24 08:16:10;;;;;;;;;2.33;0.00;;;;;14.53;100.00;100361.72;4997727;28;45513;-79
2023/03/24 08:18:35;;;;;;;;;5.00;0.67;;;;;14.56;100.00;100367.00;4997488;28;45452;-78
2023/03/24 08:21:01;;;;;;;;;2.00;0.00;;;;;14.54;100.00;100375.00;4991379;28;62098;-79
2023/03/24 08:23:27;;;;;;;;;1.33;0.00;;;;;14.54;100.00;100368.78;4996820;28;46211;-76
2023/03/24 08:25:52;;;;;;;;;1.00;0.67;;;;;14.56;100.00;100367.88;4994786;28;45407;-79
2023/03/24 08:28:18;;;;;;;;;0.00;0.00;;;;;14.60;100.00;100371.38;4996788;28;45341;-79
2023/03/24 08:30:44;;;;;;;;;2.00;1.00;;;;;14.62;100.00;100373.09;4998031;28;45564;-79
2023/03/24 08:33:11;;;;;;;;;1.00;1.00;;;;;14.68;100.00;100374.78;4997065;28;47756;-80
2023/03/24 08:35:39;;;;;;;;;2.67;0.00;;;;;14.77;100.00;100376.47;4996456;28;45415;-80
2023/03/24 08:38:08;;;;;;;;;5.00;1.00;;;;;14.84;100.00;100373.69;4980324;28;45515;-80
2023/03/24 08:40:35;;;;;;;;;4.67;0.00;;;;;14.99;100.00;100382.34;4991199;28;46312;-80
2023/03/24 08:43:03;;;;;;;;;2.67;1.00;;;;;15.07;100.00;100397.28;4995929;28;46414;-81
2023/03/24 08:45:30;;;;;;;;;4.00;0.00;;;;;15.16;100.00;100391.84;4992363;28;45543;-80
2023/03/24 08:47:58;;;;;;;;;3.00;0.00;;;;;15.23;100.00;100392.63;4978158;28;46189;-79
2023/03/24 08:50:26;;;;;;;;;2.67;0.67;;;;;15.31;100.00;100400.50;4997221;28;46058;-80
2023/03/24 08:52:53;;;;;;;;;1.00;0.00;;;;;15.35;100.00;100411.06;4996575;28;45952;-77
2023/03/24 08:55:19;;;;;;;;;2.67;1.00;;;;;15.36;100.00;100402.19;4997053;28;45455;-80
2023/03/24 08:57:45;;;;;;;;;2.00;0.00;;;;;15.40;100.00;100395.91;4996165;28;45433;-80
2023/03/24 09:00:13;;;;;;;;;3.33;0.00;;;;;15.43;100.00;100403.84;4997043;28;45162;-81
2023/03/24 09:02:39;;;;;;;;;1.00;0.00;;;;;15.42;100.00;100414.50;4996575;28;48167;-79
2023/03/24 09:05:05;;;;;;;;;0.00;0.00;;;;;15.36;100.00;100414.59;4996785;28;45330;-81
2023/03/24 09:07:30;;;;;;;;;0.67;0.00;;;;;15.30;100.00;100417.38;4978883;28;53663;-80
2023/03/24 09:09:56;;;;;;;;;0.33;0.33;;;;;15.23;100.00;100416.56;4995481;28;64202;-80
2023/03/24 09:12:21;;;;;;;;;3.67;1.00;;;;;15.26;100.00;100428.94;4993760;28;68143;-81
2023/03/24 09:14:48;;;;;;;;;1.00;1.00;;;;;15.31;100.00;100420.00;4997101;28;47007;-82
2023/03/24 09:17:13;;;;;;;;;6.00;0.33;;;;;15.40;100.00;100427.84;4979478;28;45599;-78
2023/03/24 09:19:39;;;;;;;;;2.00;1.00;;;;;15.47;100.00;100415.31;4997618;28;45306;-79
2023/03/24 09:22:04;;;;;;;;;0.00;0.00;;;;;15.60;100.00;100414.19;4994494;28;68536;-83
2023/03/24 09:24:29;;;;;;;;;0.33;0.00;;;;;15.76;100.00;100446.81;4978511;28;59846;-81
2023/03/24 09:26:55;;;;;;;;;0.00;0.00;;;;;15.87;100.00;100431.56;4996825;28;60223;-78
2023/03/24 09:29:20;;;;;;;;;1.00;1.00;;;;;15.97;100.00;100429.59;4997888;28;45812;-79
2023/03/24 09:31:45;;;;;;;;;2.00;0.67;;;;;16.09;100.00;100429.41;4994440;28;47076;-80
2023/03/24 09:34:11;;;;;;;;;2.67;0.00;;;;;16.21;100.00;100426.50;4995538;28;45286;-81
2023/03/24 09:36:36;;;;;;;;;2.00;0.33;;;;;16.28;100.00;100429.03;4978880;28;60888;-81
2023/03/24 09:39:01;;;;;;;;;0.33;0.33;;;;;16.31;100.00;100429.88;4996383;28;61557;-78
2023/03/24 09:41:29;;;;;;;;;2.00;0.00;;;;;16.31;100.00;100431.66;4979442;28;46087;-80
2023/03/24 09:44:06;;;;;;;;;0.00;0.00;;;;;16.33;100.00;100428.03;4995583;28;45487;-78
2023/03/24 09:46:53;;;;;;;;;1.33;1.00;;;;;16.36;100.00;100444.00;4996520;28;45383;-79
2023/03/24 09:49:26;;;;;;;;;3.00;1.00;;;;;16.40;100.00;100436.78;4996029;28;45375;-80
2023/03/24 09:52:06;;;;;;;;;1.00;1.00;;;;;16.42;100.00;100441.19;4972911;28;46628;-81
2023/03/24 09:54:56;;;;;;;;;5.33;0.67;;;;;16.43;100.00;100452.75;4975083;28;45544;-79
2023/03/24 09:57:42;;;;;;;;;3.00;0.00;;;;;16.44;100.00;100446.50;4982861;28;45503;-82
2023/03/24 10:00:30;;;;;;;;;1.67;1.00;;;;;16.42;100.00;100435.88;4992016;28;45474;-84
2023/03/24 10:02:58;;;;;;;;;2.67;1.00;;;;;16.44;100.00;100442.03;4976604;28;46979;-81
2023/03/24 10:05:29;;;;;;;;;0.67;0.00;;;;;16.55;100.00;100451.63;4997155;28;45416;-81
2023/03/24 10:08:24;;;;;;;;;2.00;0.00;;;;;16.55;100.00;100433.84;4995288;28;45530;-81
2023/03/24 10:11:24;;;;;;;;;1.00;0.00;;;;;16.60;100.00;100439.94;4972550;28;45696;-80
2023/03/24 10:14:39;;;;;;;;;4.33;0.67;;;;;16.73;100.00;100436.19;4992451;28;46830;-78
2023/03/24 10:17:48;;;;;;;;;0.00;0.00;;;;;16.86;100.00;100438.56;4877158;29;45648;-77
2023/03/24 10:20:46;;;;;;;;;2.00;0.00;;;;;16.93;100.00;100432.19;4878856;29;45503;-80
2023/03/24 10:23:18;;;;;;;;;1.00;1.00;;;;;17.01;100.00;100440.91;4971968;28;45551;-80
2023/03/24 10:26:03;;;;;;;;;0.00;0.00;;;;;17.05;100.00;100450.63;4995563;28;47588;-78
2023/03/24 10:28:41;;;;;;;;;3.00;0.00;;;;;17.07;99.98;100459.47;4993925;28;45741;-79
2023/03/24 10:31:10;;;;;;;;;1.33;0.00;;;;;17.05;99.58;100458.63;4978104;28;45361;-80
2023/03/24 10:33:39;;;;;;;;;4.00;0.00;;;;;16.96;99.35;100442.81;4990713;28;45712;-80
2023/03/24 10:36:23;;;;;;;;;2.33;0.00;;;;;16.91;99.83;100463.38;4978428;28;47786;-77
2023/03/24 10:38:50;;;;;;;;;2.00;0.00;;;;;16.94;99.84;100455.31;4994333;28;46524;-79
2023/03/24 10:41:21;;;;;;;;;0.67;0.00;;;;;16.99;100.00;100440.06;4996187;28;45496;-79
2023/03/24 10:43:47;;;;;;;;;0.00;0.00;;;;;16.99;100.00;100448.97;4994254;28;47065;-80
2023/03/24 10:46:15;;;;;;;;;2.00;0.00;;;;;16.99;100.00;100438.28;4961644;28;46940;-81
2023/03/24 10:48:47;;;;;;;;;1.67;0.67;;;;;17.08;100.00;100439.00;4977250;28;46703;-80
2023/03/24 10:51:23;;;;;;;;;1.67;0.00;;;;;17.22;100.00;100445.78;4996389;28;45426;-77
2023/03/24 10:53:48;;;;;;;;;5.00;1.00;;;;;17.35;99.32;100430.34;4976495;28;45468;-79
2023/03/24 10:56:37;;;;;;;;;4.00;1.00;;;;;17.46;99.71;100441.66;4995425;28;46861;-80
2023/03/24 10:59:14;;;;;;;;;3.00;0.00;;;;;17.54;99.41;100446.84;4997794;28;45483;-81
2023/03/24 11:01:40;;;;;;;;;1.00;1.00;;;;;17.59;99.85;100444.94;4975964;28;45756;-79
2023/03/24 11:04:06;;;;;;;;;3.00;0.67;;;;;17.70;99.91;100460.69;4975961;28;45518;-78
2023/03/24 11:06:32;;;;;;;;;0.67;0.67;;;;;17.83;98.84;100455.94;4994467;28;70323;-77
2023/03/24 11:09:19;;;;;;;;;6.00;0.67;;;;;17.94;97.25;100436.06;4995227;28;45516;-79
2023/03/24 11:11:45;;;;;;;;;5.00;1.00;;;;;17.92;96.67;100445.03;4995077;28;45404;-76
2023/03/24 11:14:21;;;;;;;;;1.67;0.00;;;;;17.80;96.96;100444.44;4993526;28;45277;-77
2023/03/24 11:16:47;;;;;;;;;2.33;0.00;;;;;17.81;96.87;100442.66;4989855;28;47484;-77
2023/03/24 11:19:23;;;;;;;;;3.67;1.00;;;;;17.86;96.48;100445.22;4975095;28;45544;-77
2023/03/24 11:21:51;;;;;;;;;1.33;0.00;;;;;17.82;96.76;100433.72;4990748;28;45444;-79
2023/03/24 11:24:19;;;;;;;;;1.67;1.00;;;;;17.82;97.11;100432.84;4977600;28;45503;-79
2023/03/24 11:27:02;;;;;;;;;2.33;0.00;;;;;17.89;96.48;100423.75;4977754;28;47855;-82
2023/03/24 11:29:33;;;;;;;;;2.00;0.00;;;;;17.91;96.57;100436.16;4977856;28;45481;-79
2023/03/24 11:32:00;;;;;;;;;1.00;1.00;;;;;17.94;94.91;100440.53;4994781;28;45400;-80
2023/03/24 11:34:46;;;;;;;;;2.00;0.00;;;;;17.82;94.49;100443.53;4977229;28;45463;-79